createdAt,value
2019-01-09T00:01:25.069Z,9.47
2019-01-09T00:04:34.094Z,8.37
2019-01-09T00:07:23.830Z,11.00
2019-01-09T00:10:13.668Z,6.83
2019-01-09T00:13:04.122Z,7.20
2019-01-09T00:15:53.956Z,7.47
2019-01-09T00:18:43.758Z,5.70
2019-01-09T00:21:33.573Z,5.03
2019-01-09T00:24:35.210Z,5.53
2019-01-09T00:27:17.271Z,7.10
2019-01-09T00:30:07.311Z,8.17
2019-01-09T00:32:57.048Z,4.43
2019-01-09T00:35:39.424Z,6.67
2019-01-09T00:38:29.196Z,5.67
2019-01-09T00:41:18.956Z,4.00
2019-01-09T00:44:08.859Z,4.77
2019-01-09T00:46:58.628Z,7.20
2019-01-09T00:49:48.491Z,4.87
2019-01-09T00:52:38.240Z,6.13
2019-01-09T00:55:28.070Z,6.00
2019-01-09T00:58:18.084Z,5.57
2019-01-09T01:01:26.941Z,3.13
2019-01-09T01:04:54.834Z,6.23
2019-01-09T01:08:13.014Z,7.20
2019-01-09T01:11:15.634Z,5.80
2019-01-09T01:14:43.495Z,7.03
2019-01-09T01:17:46.939Z,7.50
2019-01-09T01:20:49.362Z,5.90
2019-01-09T01:24:17.267Z,6.40
2019-01-09T01:27:45.176Z,6.00
2019-01-09T01:31:13.205Z,11.37
2019-01-09T01:34:01.803Z,6.30
2019-01-09T01:37:10.074Z,8.83
2019-01-09T01:39:52.114Z,11.27
2019-01-09T01:42:47.473Z,7.33
2019-01-09T01:46:02.532Z,8.23
2019-01-09T01:48:58.145Z,7.73
2019-01-09T01:52:26.003Z,6.63
2019-01-09T01:55:27.877Z,4.20
2019-01-09T01:58:27.813Z,3.97
2019-01-09T02:01:29.899Z,2.63
2019-01-09T02:04:57.765Z,2.83
2019-01-09T02:08:25.625Z,1.70
2019-01-09T02:11:27.854Z,3.97
2019-01-09T02:18:21.696Z,4.20
2019-01-09T02:21:23.833Z,5.10
2019-01-09T02:24:47.227Z,6.40
2019-01-09T02:27:59.367Z,3.73
2019-01-09T02:31:27.423Z,6.23
2019-01-09T02:34:17.191Z,9.27
2019-01-09T02:37:06.963Z,6.63
2019-01-09T02:39:56.733Z,8.37
2019-01-09T02:42:46.527Z,4.60
2019-01-09T02:45:36.353Z,5.63
2019-01-09T02:48:45.205Z,5.77
2019-01-09T02:51:34.936Z,7.80
2019-01-09T02:54:24.637Z,3.23
2019-01-09T02:57:14.438Z,4.67
2019-01-09T03:00:04.444Z,3.77
2019-01-09T03:02:54.186Z,4.00
2019-01-09T03:05:43.909Z,3.40
2019-01-09T03:08:26.066Z,2.93
2019-01-09T03:11:15.920Z,3.97
2019-01-09T03:13:59.754Z,3.97
2019-01-09T03:16:49.507Z,4.83
2019-01-09T03:19:32.577Z,3.63
2019-01-09T03:22:22.344Z,4.50
2019-01-09T03:25:12.079Z,6.37
2019-01-09T03:27:56.260Z,4.17
2019-01-09T03:30:39.109Z,4.87
2019-01-09T03:33:28.914Z,6.47
2019-01-09T03:36:18.706Z,6.03
2019-01-09T03:39:08.490Z,9.03
2019-01-09T03:41:58.254Z,6.23
2019-01-09T03:44:48.218Z,4.70
2019-01-09T03:47:38.038Z,7.07
2019-01-09T03:50:10.849Z,7.73
2019-01-09T03:53:00.546Z,5.33
2019-01-09T03:55:43.166Z,3.60
2019-01-09T03:58:32.963Z,4.17
2019-01-09T04:01:38.137Z,3.43
2019-01-09T04:04:20.826Z,5.43
2019-01-09T04:07:10.562Z,4.00
2019-01-09T04:09:41.280Z,3.63
2019-01-09T04:12:30.980Z,9.00
2019-01-09T04:15:13.664Z,5.37
2019-01-09T04:18:03.406Z,4.33
2019-01-09T04:20:46.170Z,3.63
2019-01-09T04:23:35.933Z,3.10
2019-01-09T04:26:17.992Z,5.23
2019-01-09T04:29:07.740Z,2.60
2019-01-09T04:31:50.004Z,3.80
2019-01-09T04:34:39.732Z,4.43
2019-01-09T04:37:22.268Z,5.37
2019-01-09T04:40:12.030Z,3.80
2019-01-09T04:42:54.343Z,3.00
2019-01-09T04:45:44.112Z,3.73
2019-01-09T04:48:27.122Z,5.00
2019-01-09T04:51:16.938Z,3.93
2019-01-09T04:54:06.738Z,4.37
2019-01-09T04:56:56.529Z,2.67
2019-01-09T04:59:46.401Z,4.83
2019-01-09T05:02:36.182Z,4.87
2019-01-09T05:05:25.914Z,4.93
2019-01-09T05:08:15.636Z,5.97
2019-01-09T05:11:05.354Z,5.43
2019-01-09T05:13:47.756Z,4.67
2019-01-09T05:16:37.465Z,6.40
2019-01-09T05:19:21.476Z,4.07
2019-01-09T05:22:11.148Z,5.60
2019-01-09T05:24:53.516Z,4.03
2019-01-09T05:27:43.267Z,5.07
2019-01-09T05:30:25.406Z,4.53
2019-01-09T05:33:15.156Z,3.07
2019-01-09T05:35:57.859Z,3.93
2019-01-09T05:38:48.042Z,8.97
2019-01-09T05:41:50.766Z,3.43
2019-01-09T05:44:34.289Z,6.33
2019-01-09T05:47:24.019Z,5.93
2019-01-09T05:50:06.461Z,7.40
2019-01-09T05:52:56.191Z,2.53
2019-01-09T05:55:38.428Z,5.17
2019-01-09T05:58:28.164Z,6.87
2019-01-09T06:01:10.439Z,5.30
2019-01-09T06:03:41.099Z,4.03
2019-01-09T06:06:31.081Z,4.93
2019-01-09T06:09:20.989Z,3.47
2019-01-09T06:12:10.735Z,3.60
2019-01-09T06:15:00.511Z,3.20
2019-01-09T06:17:50.297Z,6.20
2019-01-09T06:20:40.381Z,5.67
2019-01-09T06:23:30.177Z,6.50
2019-01-09T06:26:19.941Z,3.23
2019-01-09T06:29:02.719Z,6.13
2019-01-09T06:31:52.545Z,5.10
2019-01-09T06:34:54.662Z,8.80
2019-01-09T06:37:36.819Z,3.63
2019-01-09T06:40:07.993Z,9.93
2019-01-09T06:42:57.730Z,4.47
2019-01-09T06:45:39.711Z,7.80
2019-01-09T06:48:29.433Z,5.00
2019-01-09T06:51:11.746Z,5.00
2019-01-09T06:54:01.531Z,5.87
2019-01-09T06:59:54.957Z,2.93
2019-01-09T07:02:37.769Z,7.90
2019-01-09T07:05:27.565Z,4.33
2019-01-09T07:08:17.336Z,5.93
2019-01-09T07:11:07.218Z,1.87
2019-01-09T07:13:56.975Z,2.63
2019-01-09T07:16:46.705Z,1.07
2019-01-09T07:19:33.251Z,4.70
2019-01-09T07:22:16.309Z,2.80
2019-01-09T07:25:06.201Z,3.57
2019-01-09T07:27:56.093Z,9.03
2019-01-09T07:30:45.833Z,3.10
2019-01-09T07:33:35.560Z,1.33
2019-01-09T07:36:18.093Z,2.17
2019-01-09T07:39:08.232Z,3.73
2019-01-09T07:41:57.967Z,2.10
2019-01-09T07:45:00.457Z,3.80
2019-01-09T07:47:43.029Z,1.30
2019-01-09T07:50:32.753Z,1.67
2019-01-09T07:53:14.606Z,1.70
2019-01-09T07:56:04.297Z,2.90
2019-01-09T07:58:47.619Z,1.77
2019-01-09T08:01:37.351Z,1.13
2019-01-09T08:04:20.181Z,1.33
2019-01-09T08:07:09.965Z,1.70
2019-01-09T08:15:45.694Z,1.93
2019-01-09T08:18:35.431Z,1.10
2019-01-09T08:21:19.320Z,1.20
2019-01-09T08:23:50.284Z,1.30
2019-01-09T08:26:40.002Z,1.33
2019-01-09T08:29:24.045Z,2.37
2019-01-09T08:32:06.996Z,1.80
2019-01-09T08:34:56.788Z,2.17
2019-01-09T08:37:46.627Z,2.40
2019-01-09T08:40:44.306Z,1.20
2019-01-09T08:43:34.090Z,1.10
2019-01-09T08:46:24.334Z,3.50
2019-01-09T08:49:14.222Z,2.00
2019-01-09T08:52:03.947Z,2.67
2019-01-09T08:54:53.742Z,2.47
2019-01-09T08:57:43.506Z,4.70
2019-01-09T09:00:33.295Z,2.80
2019-01-09T09:03:23.176Z,2.30
2019-01-09T09:06:12.893Z,1.93
2019-01-09T09:11:59.415Z,2.33
2019-01-09T09:15:08.224Z,2.40
2019-01-09T09:17:50.846Z,2.00
2019-01-09T09:20:40.543Z,1.67
2019-01-09T09:23:23.420Z,2.63
2019-01-09T09:26:13.171Z,2.07
2019-01-09T09:28:55.894Z,2.23
2019-01-09T09:31:45.609Z,2.77
2019-01-09T09:34:28.370Z,1.70
2019-01-09T09:37:19.087Z,4.73
2019-01-09T09:40:02.089Z,1.93
2019-01-09T09:42:51.851Z,3.73
2019-01-09T09:45:33.852Z,2.50
2019-01-09T09:48:23.611Z,2.13
2019-01-09T09:51:05.908Z,4.33
2019-01-09T09:53:55.610Z,3.03
2019-01-09T09:56:39.994Z,3.20
2019-01-09T09:59:29.732Z,3.50
2019-01-09T10:02:12.010Z,4.43
2019-01-09T10:05:01.750Z,4.23
2019-01-09T10:07:44.176Z,4.47
2019-01-09T10:10:53.063Z,3.33
2019-01-09T10:13:35.554Z,4.87
2019-01-09T10:16:25.298Z,2.67
2019-01-09T10:19:07.898Z,4.83
2019-01-09T10:22:16.706Z,4.10
2019-01-09T10:25:05.810Z,4.57
2019-01-09T10:27:55.527Z,4.20
2019-01-09T10:30:37.607Z,3.83
2019-01-09T10:33:27.350Z,2.83
2019-01-09T10:36:09.662Z,5.00
2019-01-09T10:38:59.405Z,2.20
2019-01-09T10:41:41.916Z,4.33
2019-01-09T10:44:31.680Z,4.40
2019-01-09T10:47:15.950Z,2.13
2019-01-09T10:50:05.801Z,3.80
2019-01-09T10:52:49.906Z,3.93
2019-01-09T10:55:39.739Z,6.00
2019-01-09T10:58:22.191Z,3.90
2019-01-09T11:01:11.947Z,6.23
2019-01-09T11:03:54.546Z,3.57
2019-01-09T11:06:44.259Z,2.53
2019-01-09T11:09:26.643Z,2.30
2019-01-09T11:12:08.837Z,4.87
2019-01-09T11:14:58.685Z,1.63
2019-01-09T11:27:01.245Z,1.50
2019-01-09T11:29:50.948Z,2.67
2019-01-09T11:32:33.321Z,1.27
2019-01-09T11:35:24.797Z,2.73
2019-01-09T11:38:07.772Z,1.80
2019-01-09T11:43:56.431Z,2.50
2019-01-09T11:49:32.616Z,1.47
2019-01-09T11:52:22.419Z,3.00
2019-01-09T11:55:13.317Z,1.83
2019-01-09T11:58:03.227Z,4.47
2019-01-09T12:00:53.061Z,3.73
2019-01-09T12:03:42.834Z,1.60
2019-01-09T12:06:32.605Z,1.60
2019-01-09T12:09:22.421Z,3.53
2019-01-09T12:12:12.209Z,2.10
2019-01-09T12:15:02.022Z,2.07
2019-01-09T12:17:51.841Z,3.10
2019-01-09T12:20:41.593Z,2.07
2019-01-09T12:23:50.289Z,3.13
2019-01-09T12:26:39.299Z,1.50
2019-01-09T12:29:29.085Z,3.73
2019-01-09T12:32:11.507Z,3.30
2019-01-09T12:35:01.238Z,6.97
2019-01-09T12:37:43.949Z,1.43
2019-01-09T12:40:14.967Z,3.73
2019-01-09T12:43:04.667Z,2.73
2019-01-09T12:45:50.978Z,3.83
2019-01-09T12:48:33.266Z,4.07
2019-01-09T12:54:05.218Z,3.10
2019-01-09T12:56:54.935Z,1.47
2019-01-09T12:59:37.380Z,2.57
2019-01-09T13:02:27.118Z,2.47
2019-01-09T13:05:17.106Z,5.07
2019-01-09T13:08:06.828Z,5.33
2019-01-09T13:10:52.924Z,3.23
2019-01-09T13:13:42.632Z,4.30
2019-01-09T13:16:26.604Z,3.30
2019-01-09T13:19:16.307Z,3.20
2019-01-09T13:21:58.810Z,2.93
2019-01-09T13:24:48.520Z,2.07
2019-01-09T13:27:31.010Z,3.83
2019-01-09T13:30:22.758Z,3.00
2019-01-09T13:33:05.082Z,3.50
2019-01-09T13:36:13.900Z,4.13
2019-01-09T13:38:55.806Z,2.67
2019-01-09T13:41:45.501Z,2.50
2019-01-09T13:44:27.912Z,2.50
2019-01-09T13:47:17.611Z,2.90
2019-01-09T13:50:01.877Z,1.77
2019-01-09T13:52:51.612Z,2.23
2019-01-09T13:55:34.045Z,2.33
2019-01-09T13:58:23.776Z,1.50
2019-01-09T14:01:13.490Z,2.23
2019-01-09T14:03:55.780Z,2.00
2019-01-09T14:06:45.780Z,2.03
2019-01-09T14:09:29.760Z,1.83
2019-01-09T14:12:19.496Z,5.07
2019-01-09T14:15:01.854Z,5.03
2019-01-09T14:20:35.999Z,7.63
2019-01-09T14:23:25.765Z,2.10
2019-01-09T14:26:08.423Z,4.60
2019-01-09T14:28:58.218Z,4.20
2019-01-09T14:31:48.026Z,3.67
2019-01-09T14:34:37.791Z,5.00
2019-01-09T14:37:27.670Z,3.20
2019-01-09T14:40:17.477Z,3.07
2019-01-09T14:43:07.301Z,3.87
2019-01-09T14:45:57.088Z,2.80
2019-01-09T14:48:46.864Z,4.07
2019-01-09T14:51:55.734Z,4.43
2019-01-09T14:54:45.517Z,2.40
2019-01-09T14:57:35.318Z,2.73
2019-01-09T15:00:19.755Z,4.70
2019-01-09T15:03:09.561Z,3.33
2019-01-09T15:05:59.398Z,3.53
2019-01-09T15:08:49.306Z,1.20
2019-01-09T15:11:39.154Z,2.50
2019-01-09T15:14:28.969Z,4.00
2019-01-09T15:17:18.754Z,3.57
2019-01-09T15:23:04.991Z,4.37
2019-01-09T15:25:54.787Z,2.57
2019-01-09T15:28:44.600Z,1.50
2019-01-09T15:31:53.469Z,1.90
2019-01-09T15:34:43.229Z,4.60
2019-01-09T15:37:25.650Z,4.37
2019-01-09T15:40:09.805Z,2.83
2019-01-09T15:42:59.517Z,3.50
2019-01-09T15:45:42.381Z,3.53
2019-01-09T15:48:32.139Z,2.77
2019-01-09T15:51:14.589Z,2.87
2019-01-09T15:54:04.834Z,2.87
2019-01-09T15:56:48.593Z,3.10
2019-01-09T16:02:39.517Z,3.47
2019-01-09T16:05:29.290Z,3.97
2019-01-09T16:08:12.170Z,2.53
2019-01-09T16:11:01.935Z,2.00
2019-01-09T16:13:44.181Z,3.60
2019-01-09T16:16:33.917Z,4.33
2019-01-09T16:19:16.197Z,3.43
2019-01-09T16:22:06.155Z,4.73
2019-01-09T16:24:48.647Z,5.17
2019-01-09T16:27:38.411Z,5.07
2019-01-09T16:30:23.057Z,3.00
2019-01-09T16:33:12.809Z,6.07
2019-01-09T16:35:55.360Z,4.83
2019-01-09T16:38:45.232Z,4.63
2019-01-09T16:41:27.809Z,4.73
2019-01-09T16:44:17.573Z,4.73
2019-01-09T16:47:00.331Z,3.33
2019-01-09T16:49:50.092Z,4.23
2019-01-09T16:52:32.279Z,5.33
2019-01-09T16:55:22.025Z,7.93
2019-01-09T16:58:04.687Z,4.77
2019-01-09T17:04:05.570Z,2.53
2019-01-09T17:06:52.164Z,8.87
2019-01-09T17:09:34.972Z,6.07
2019-01-09T17:12:24.877Z,6.20
2019-01-09T17:15:28.108Z,5.73
2019-01-09T17:18:10.483Z,8.23
2019-01-09T17:21:00.247Z,14.37
2019-01-09T17:23:42.529Z,4.70
2019-01-09T17:26:32.319Z,9.47
2019-01-09T17:29:14.587Z,12.30
2019-01-09T17:32:04.350Z,8.70
2019-01-09T17:34:46.579Z,12.43
2019-01-09T17:37:36.429Z,19.63
2019-01-09T17:40:18.739Z,6.47
2019-01-09T17:43:08.773Z,9.43
2019-01-09T17:45:50.808Z,9.13
2019-01-09T17:48:40.547Z,8.67
2019-01-09T17:51:26.949Z,10.83
2019-01-09T17:54:16.706Z,9.93
2019-01-09T17:56:59.522Z,11.50
2019-01-09T17:59:49.248Z,11.40
2019-01-09T18:02:31.782Z,7.53
2019-01-09T18:05:21.562Z,10.23
2019-01-09T18:08:10.332Z,8.07
2019-01-09T18:10:57.093Z,5.33
2019-01-09T18:13:39.203Z,10.27
2019-01-09T18:16:28.934Z,8.67
2019-01-09T18:19:11.310Z,9.73
2019-01-09T18:25:02.879Z,11.97
2019-01-09T18:27:52.606Z,9.43
2019-01-09T18:30:43.184Z,8.87
2019-01-09T18:33:54.819Z,8.60
2019-01-09T18:36:57.658Z,7.53
2019-01-09T18:39:59.567Z,5.97
2019-01-09T18:43:01.584Z,5.07
2019-01-09T18:46:05.424Z,7.63
2019-01-09T18:49:33.309Z,8.67
2019-01-09T18:52:47.882Z,8.60
2019-01-09T18:55:30.444Z,11.97
2019-01-09T18:58:20.279Z,12.20
2019-01-09T19:01:10.050Z,10.87
2019-01-09T19:03:53.972Z,12.93
2019-01-09T19:06:43.824Z,11.70
2019-01-09T19:09:46.473Z,13.30
2019-01-09T19:12:29.021Z,5.23
2019-01-09T19:15:19.033Z,12.47
2019-01-09T19:18:05.347Z,13.73
2019-01-09T19:20:56.831Z,6.63
2019-01-09T19:23:39.650Z,11.60
2019-01-09T19:26:29.392Z,6.73
2019-01-09T19:29:13.087Z,9.20
2019-01-09T19:32:03.063Z,12.77
2019-01-09T19:34:45.683Z,8.90
2019-01-09T19:37:35.395Z,8.50
2019-01-09T19:40:17.495Z,7.47
2019-01-09T19:43:07.235Z,11.13
2019-01-09T19:45:57.029Z,9.73
2019-01-09T19:48:39.553Z,5.60
2019-01-09T19:51:29.403Z,8.60
2019-01-09T19:54:19.275Z,6.80
2019-01-09T19:57:09.057Z,12.83
2019-01-09T19:59:58.796Z,9.10
2019-01-09T20:02:41.033Z,7.93
2019-01-09T20:05:30.865Z,6.27
2019-01-09T20:08:20.827Z,15.03
2019-01-09T20:11:10.824Z,8.30
2019-01-09T20:14:00.727Z,10.20
2019-01-09T20:16:50.591Z,7.20
2019-01-09T20:19:40.363Z,8.10
2019-01-09T20:22:31.115Z,10.80
2019-01-09T20:25:13.199Z,6.50
2019-01-09T20:28:03.036Z,4.97
2019-01-09T20:30:52.935Z,7.93
2019-01-09T20:34:01.903Z,5.50
2019-01-09T20:39:34.675Z,5.33
2019-01-09T20:42:43.549Z,10.70
2019-01-09T20:45:35.483Z,12.87
2019-01-09T20:48:25.562Z,13.23
2019-01-09T20:51:08.999Z,8.37
2019-01-09T20:53:58.717Z,10.87
2019-01-09T20:56:41.353Z,10.50
2019-01-09T20:59:31.117Z,6.97
2019-01-09T21:02:13.350Z,8.73
2019-01-09T21:05:03.085Z,10.53
2019-01-09T21:07:45.433Z,6.90
2019-01-09T21:10:35.501Z,8.93
2019-01-09T21:13:18.179Z,18.23
2019-01-09T21:16:08.030Z,14.77
2019-01-09T21:18:52.185Z,11.80
2019-01-09T21:21:42.289Z,9.70
2019-01-09T21:27:27.821Z,24.50
2019-01-09T21:30:20.488Z,35.33
2019-01-09T21:33:02.521Z,27.60
2019-01-09T21:38:53.424Z,30.80
2019-01-09T21:41:43.213Z,14.20
2019-01-09T21:44:27.161Z,7.90
2019-01-09T21:47:35.994Z,11.47
2019-01-09T21:50:18.822Z,9.43
2019-01-09T21:53:08.520Z,8.77
2019-01-09T21:55:51.552Z,30.60
2019-01-09T21:58:41.290Z,14.47
2019-01-09T22:01:23.992Z,14.40
2019-01-09T22:04:14.093Z,10.87
2019-01-09T22:06:57.248Z,9.60
2019-01-09T22:09:47.008Z,11.33
2019-01-09T22:12:29.911Z,11.30
2019-01-09T22:15:20.506Z,11.13
2019-01-09T22:18:03.365Z,8.37
2019-01-09T22:20:53.168Z,10.43
2019-01-09T22:23:43.763Z,13.33
2019-01-09T22:26:26.175Z,14.03
2019-01-09T22:29:16.228Z,10.47
2019-01-09T22:35:11.368Z,11.07
2019-01-09T22:38:01.322Z,7.30
2019-01-09T22:40:47.661Z,11.63
2019-01-09T22:43:33.091Z,8.23
2019-01-09T22:46:23.258Z,13.67
2019-01-09T22:49:13.176Z,10.37
2019-01-09T22:52:02.996Z,22.63
2019-01-09T22:57:58.334Z,12.30
2019-01-09T23:00:44.972Z,12.07
2019-01-09T23:03:34.916Z,11.13
2019-01-09T23:06:24.922Z,14.00
2019-01-09T23:09:14.774Z,11.57
2019-01-09T23:12:06.680Z,11.23
2019-01-09T23:14:56.886Z,13.37
2019-01-09T23:20:31.906Z,9.37
2019-01-09T23:23:22.117Z,9.00
2019-01-09T23:26:12.362Z,9.00
2019-01-09T23:28:55.967Z,8.60
2019-01-09T23:31:47.861Z,9.13
2019-01-09T23:37:29.829Z,6.57
2019-01-09T23:40:20.019Z,7.27
2019-01-09T23:43:09.834Z,8.73
2019-01-09T23:45:52.999Z,7.97
2019-01-09T23:48:43.105Z,6.80
2019-01-09T23:51:33.192Z,9.57
2019-01-09T23:54:23.328Z,10.67
2019-01-09T23:57:13.123Z,9.70
